Time;durP1;ratioP1;P1;durP2;ratioP2;P2;SDS_P1;SDS_P2;PMS_P1;PMS_P2;Temp;Humidity;BMP_temperature;BMP_pressure;BME280_temperature;BME280_humidity;BME280_pressure;Samples;Min_cycle;Max_cycle;Signal;HPM_P1;HPM_P2
2023/03/20 00:01:22;;;;;;;4.28;1.30;;;;;;;19.43;56.44;100082.91;5094697;28;20056;-72
2023/03/20 00:03:49;;;;;;;2.22;1.30;;;;;;;19.42;56.33;100082.03;5094926;28;20487;-72
2023/03/20 00:06:17;;;;;;;2.60;1.30;;;;;;;19.40;56.46;100088.31;5094826;28;20114;-72
2023/03/20 00:08:47;;;;;;;1.75;1.00;;;;;;;19.37;56.36;100086.66;5094432;28;20031;-73
2023/03/20 00:11:29;;;;;;;2.13;1.10;;;;;;;19.38;56.38;100090.16;5093378;28;20512;-73
2023/03/20 00:14:05;;;;;;;1.95;1.17;;;;;;;19.37;56.43;100085.81;5094783;28;20063;-72
2023/03/20 00:16:33;;;;;;;2.45;1.00;;;;;;;19.35;56.08;100080.59;5094759;28;20020;-72
2023/03/20 00:18:59;;;;;;;2.20;1.08;;;;;;;19.34;56.33;100089.47;5094724;28;20028;-73
2023/03/20 00:21:25;;;;;;;2.15;1.13;;;;;;;19.36;56.41;100090.22;5094235;28;20024;-73
2023/03/20 00:23:50;;;;;;;2.33;1.30;;;;;;;19.35;56.24;100085.88;5094772;28;20016;-72
2023/03/20 00:26:18;;;;;;;1.80;1.05;;;;;;;19.33;56.30;100074.50;5094344;28;20061;-72
2023/03/20 00:28:48;;;;;;;2.00;1.02;;;;;;;19.33;56.21;100079.81;5094441;28;20016;-72
2023/03/20 00:31:24;;;;;;;2.38;1.20;;;;;;;19.28;56.20;100077.34;5094500;28;20069;-72
2023/03/20 00:33:50;;;;;;;1.70;1.05;;;;;;;19.28;56.22;100079.97;5094536;28;20016;-72
2023/03/20 00:36:16;;;;;;;1.85;1.05;;;;;;;19.27;56.41;100078.28;5094080;28;20035;-72
2023/03/20 00:38:41;;;;;;;1.38;0.80;;;;;;;19.29;56.26;100076.44;5094414;28;20028;-73
2023/03/20 00:41:19;;;;;;;2.08;1.25;;;;;;;19.26;56.27;100073.91;5094350;28;20479;-72
2023/03/20 00:43:45;;;;;;;1.60;0.82;;;;;;;19.28;56.14;100077.34;5094099;28;20154;-73
2023/03/20 00:46:13;;;;;;;2.00;0.82;;;;;;;19.26;55.90;100079.19;5093952;28;20027;-72
2023/03/20 00:48:40;;;;;;;2.42;1.02;;;;;;;19.26;56.05;100076.56;5092574;28;20428;-73
2023/03/20 00:51:06;;;;;;;2.40;1.00;;;;;;;19.27;56.10;100072.13;5093507;28;20035;-72
2023/03/20 00:53:32;;;;;;;1.80;0.88;;;;;;;19.26;56.04;100065.97;5094034;28;20556;-72
2023/03/20 00:55:57;;;;;;;2.25;1.00;;;;;;;19.25;55.85;100069.56;5093697;28;20025;-73
2023/03/20 00:58:25;;;;;;;2.22;1.15;;;;;;;19.25;56.08;100058.97;5093872;28;20049;-73
2023/03/20 01:00:51;;;;;;;2.17;1.23;;;;;;;19.24;56.03;100061.69;5093819;28;20166;-72
2023/03/20 01:03:19;;;;;;;2.33;1.15;;;;;;;19.22;56.29;100053.78;5093659;28;20523;-72
2023/03/20 01:05:46;;;;;;;1.83;0.88;;;;;;;19.21;56.13;100052.09;5093401;28;20040;-72
2023/03/20 01:08:15;;;;;;;2.13;0.90;;;;;;;19.19;56.08;100048.66;5093798;28;20028;-73
2023/03/20 01:10:41;;;;;;;1.95;0.85;;;;;;;19.19;55.88;100048.66;5093739;28;20051;-73
2023/03/20 01:13:23;;;;;;;1.38;0.80;;;;;;;19.18;56.07;100046.94;5092336;28;20503;-73
2023/03/20 01:15:51;;;;;;;1.38;0.80;;;;;;;19.16;55.82;100043.50;5093691;28;20024;-73
2023/03/20 01:18:18;;;;;;;1.55;0.82;;;;;;;19.18;55.97;100033.72;5093631;28;20032;-72
2023/03/20 01:20:44;;;;;;;2.03;1.08;;;;;;;19.18;55.96;100041.66;5093208;28;20066;-73
2023/03/20 01:23:11;;;;;;;1.15;0.70;;;;;;;19.16;55.92;100043.50;5093537;28;20024;-73
2023/03/20 01:25:37;;;;;;;1.13;0.70;;;;;;;19.16;55.96;100027.63;5093264;28;20038;-72
2023/03/20 01:28:10;;;;;;;1.70;0.82;;;;;;;19.14;55.82;100025.03;5093373;28;20024;-73
2023/03/20 01:30:36;;;;;;;1.58;0.90;;;;;;;19.14;55.88;100022.38;5093199;28;20024;-72
2023/03/20 01:33:11;;;;;;;2.10;0.90;;;;;;;19.13;55.87;100022.47;5093158;28;20066;-72
2023/03/20 01:35:38;;;;;;;3.08;1.10;;;;;;;19.13;55.92;100011.91;5092888;28;20020;-72
2023/03/20 01:38:10;;;;;;;1.90;0.90;;;;;;;19.11;55.94;100016.38;5093106;28;20032;-72
2023/03/20 01:40:39;;;;;;;1.60;0.85;;;;;;;19.13;55.77;100014.53;5093220;28;20027;-72
2023/03/20 01:43:13;;;;;;;2.22;0.88;;;;;;;19.10;55.86;100010.25;5093214;28;20024;-73
2023/03/20 01:45:54;;;;;;;2.58;0.75;;;;;;;19.09;56.07;100011.19;5092880;28;20056;-72
2023/03/20 01:48:22;;;;;;;1.05;0.70;;;;;;;19.08;55.71;100005.94;5092630;28;20032;-72
2023/03/20 01:50:48;;;;;;;1.02;0.60;;;;;;;19.05;55.99;99999.84;5092811;28;20042;-72
2023/03/20 01:53:22;;;;;;;1.35;0.73;;;;;;;19.07;56.03;100001.59;5092905;28;20028;-72
2023/03/20 01:55:51;;;;;;;1.38;0.80;;;;;;;19.05;55.93;99994.56;5092846;28;20597;-73
2023/03/20 01:58:25;;;;;;;0.98;0.73;;;;;;;19.07;55.82;99998.94;5092387;28;20056;-72
2023/03/20 02:00:50;;;;;;;1.15;0.70;;;;;;;19.05;55.96;99997.19;5092837;28;20055;-72
2023/03/20 02:03:17;;;;;;;1.83;0.73;;;;;;;19.04;55.76;99998.13;5092473;28;20020;-72
2023/03/20 02:05:44;;;;;;;1.48;0.80;;;;;;;19.04;55.87;99994.66;5092615;28;20085;-72
2023/03/20 02:08:18;;;;;;;0.85;0.60;;;;;;;19.01;55.69;99987.66;5092515;28;20027;-72
2023/03/20 02:10:45;;;;;;;1.60;0.77;;;;;;;19.03;55.72;99985.00;5092452;28;20534;-73
2023/03/20 02:13:12;;;;;;;1.65;0.95;;;;;;;18.99;55.84;99984.22;5092650;28;20055;-72
2023/03/20 02:15:58;;;;;;;1.27;0.63;;;;;;;18.97;55.98;99975.50;5092504;28;20024;-73
2023/03/20 02:18:24;;;;;;;2.13;1.03;;;;;;;18.96;55.95;99976.44;5092192;28;20061;-73
2023/03/20 02:21:08;;;;;;;1.52;0.68;;;;;;;18.96;55.83;99972.91;5092406;28;20024;-72
2023/03/20 02:23:58;;;;;;;1.33;0.60;;;;;;;18.94;55.77;99975.66;5092418;28;20020;-73
2023/03/20 02:26:56;;;;;;;1.38;0.55;;;;;;;18.97;55.84;99977.28;5092225;28;20027;-73
2023/03/20 02:29:33;;;;;;;2.10;0.70;;;;;;;18.96;55.75;99980.84;5049877;28;20044;-72
2023/03/20 02:32:10;;;;;;;0.90;0.63;;;;;;;18.96;55.81;99989.66;5049587;28;20040;-73
2023/03/20 02:35:21;;;;;;;1.27;0.60;;;;;;;18.94;55.46;99986.22;5049759;28;20083;-73
2023/03/20 02:38:04;;;;;;;0.77;0.50;;;;;;;18.95;55.55;99982.66;4990252;28;20188;-73
2023/03/20 02:40:38;;;;;;;0.77;0.52;;;;;;;18.94;55.41;99980.94;4974297;28;20035;-73
2023/03/20 02:43:13;;;;;;;0.95;0.57;;;;;;;18.92;55.47;99983.66;4990200;28;20510;-72
2023/03/20 02:46:00;;;;;;;0.90;0.40;;;;;;;18.91;55.64;99975.78;4990170;28;20040;-73
2023/03/20 02:49:06;;;;;;;1.27;0.73;;;;;;;18.90;55.54;99977.53;4990261;28;20052;-72
2023/03/20 02:51:39;;;;;;;1.52;0.70;;;;;;;18.90;55.48;99977.53;4960637;28;20426;-73
2023/03/20 02:54:13;;;;;;;1.73;0.60;;;;;;;18.91;55.80;99986.34;4990269;28;20049;-72
2023/03/20 02:56:56;;;;;;;0.93;0.60;;;;;;;18.90;55.53;99985.47;4990138;28;20528;-72
2023/03/20 02:59:34;;;;;;;1.83;0.60;;;;;;;18.89;55.50;99989.06;4990332;28;20179;-73
2023/03/20 03:02:08;;;;;;;0.75;0.50;;;;;;;18.87;55.57;99979.47;4990035;28;20069;-73
2023/03/20 03:04:48;;;;;;;0.73;0.50;;;;;;;18.87;55.63;99974.19;4990119;28;20073;-72
2023/03/20 03:07:18;;;;;;;1.60;0.60;;;;;;;18.85;55.42;99976.03;5026933;28;20444;-73
2023/03/20 03:09:51;;;;;;;1.00;0.50;;;;;;;18.84;55.40;99977.81;5030882;28;20099;-72
2023/03/20 03:12:28;;;;;;;0.40;0.40;;;;;;;18.85;55.53;99970.75;5033454;28;20025;-72
2023/03/20 03:15:18;;;;;;;1.17;0.63;;;;;;;18.84;55.38;99979.63;5059815;28;20078;-73
2023/03/20 03:17:48;;;;;;;1.10;0.50;;;;;;;18.83;55.65;99977.91;5075671;28;20095;-73
2023/03/20 03:20:33;;;;;;;0.50;0.43;;;;;;;18.84;55.65;99974.34;5075646;28;20052;-72
2023/03/20 03:23:00;;;;;;;0.98;0.50;;;;;;;18.83;55.26;99968.19;5075384;28;20055;-73
2023/03/20 03:25:36;;;;;;;0.52;0.40;;;;;;;18.80;55.51;99955.09;5075391;28;20484;-72
2023/03/20 03:28:21;;;;;;;1.42;0.50;;;;;;;18.77;55.44;99953.47;5075517;28;20055;-72
2023/03/20 03:30:48;;;;;;;1.27;0.50;;;;;;;18.81;55.48;99961.22;5075085;28;20025;-72
2023/03/20 03:33:28;;;;;;;1.23;0.45;;;;;;;18.79;55.41;99959.53;5075293;28;20021;-72
2023/03/20 03:36:08;;;;;;;0.88;0.45;;;;;;;18.78;55.54;99949.88;5075342;28;20042;-72
2023/03/20 03:38:45;;;;;;;0.95;0.40;;;;;;;18.77;55.49;99948.16;5075124;28;20098;-73
2023/03/20 03:41:18;;;;;;;1.45;0.60;;;;;;;18.78;55.25;99949.00;5075046;28;20025;-72
2023/03/20 03:44:12;;;;;;;0.47;0.30;;;;;;;18.76;55.37;99951.75;5073776;28;20086;-72
2023/03/20 03:46:44;;;;;;;0.68;0.43;;;;;;;18.74;55.31;99950.94;5075022;28;20373;-72
2023/03/20 03:49:16;;;;;;;0.80;0.40;;;;;;;18.75;55.25;99950.00;5075080;28;20035;-72
2023/03/20 03:51:44;;;;;;;2.10;0.40;;;;;;;18.73;55.14;99946.56;5074813;28;20044;-72
2023/03/20 03:54:32;;;;;;;0.98;0.50;;;;;;;18.74;55.30;99944.81;5074875;28;20024;-72
2023/03/20 03:57:00;;;;;;;1.02;0.50;;;;;;;18.72;55.41;99950.16;5076611;28;20048;-72
2023/03/20 03:59:31;;;;;;;1.58;0.43;;;;;;;18.74;55.60;99945.63;5094687;28;20020;-73
2023/03/20 04:01:58;;;;;;;0.95;0.35;;;;;;;18.73;55.14;99945.69;5094851;28;20103;-73
2023/03/20 04:04:26;;;;;;;1.58;0.50;;;;;;;18.73;55.34;99951.88;5095117;28;20479;-73
2023/03/20 04:06:51;;;;;;;0.43;0.38;;;;;;;18.73;55.43;99951.00;5093513;28;20434;-72
2023/03/20 04:09:17;;;;;;;0.80;0.40;;;;;;;18.73;55.30;99949.22;5093928;28;20024;-72
2023/03/20 04:11:44;;;;;;;1.05;0.50;;;;;;;18.72;55.45;99949.28;5094948;28;20016;-73
2023/03/20 04:14:10;;;;;;;0.88;0.55;;;;;;;18.71;55.38;99953.72;5094378;28;20020;-72
2023/03/20 04:16:36;;;;;;;1.20;0.50;;;;;;;18.71;55.22;99953.72;5094774;28;20054;-72
2023/03/20 04:19:01;;;;;;;0.95;0.50;;;;;;;18.71;55.25;99958.13;5094739;28;20059;-72
2023/03/20 04:21:27;;;;;;;0.50;0.32;;;;;;;18.69;55.34;99950.25;5093039;28;20024;-72
2023/03/20 04:23:52;;;;;;;2.00;0.47;;;;;;;18.69;55.36;99950.25;5094799;28;20036;-72
2023/03/20 04:26:18;;;;;;;1.50;0.70;;;;;;;18.68;55.27;99947.72;5094447;28;20525;-72
2023/03/20 04:28:43;;;;;;;1.10;0.40;;;;;;;18.67;55.37;99948.63;5094187;28;20016;-72
2023/03/20 04:31:08;;;;;;;2.15;0.70;;;;;;;18.68;55.36;99953.00;5094578;28;20487;-72
2023/03/20 04:33:34;;;;;;;0.70;0.47;;;;;;;18.68;55.14;99953.84;5094442;28;20381;-72
2023/03/20 04:36:00;;;;;;;0.90;0.60;;;;;;;18.68;55.42;99953.84;5094287;28;20024;-72
2023/03/20 04:38:25;;;;;;;0.55;0.40;;;;;;;18.67;55.20;99956.53;5094281;28;20418;-72
2023/03/20 04:40:51;;;;;;;1.05;0.40;;;;;;;18.66;55.35;99958.34;5094563;28;20020;-72
2023/03/20 04:43:16;;;;;;;1.00;0.43;;;;;;;18.67;55.17;99964.47;5094052;28;20472;-72
2023/03/20 04:45:42;;;;;;;1.27;0.50;;;;;;;18.65;55.25;99961.91;5094094;28;20036;-72
2023/03/20 04:48:08;;;;;;;1.15;0.60;;;;;;;18.64;55.06;99962.81;5092945;28;20061;-73
2023/03/20 04:50:33;;;;;;;0.50;0.30;;;;;;;18.61;55.20;99969.13;5093972;28;20071;-72
2023/03/20 04:52:59;;;;;;;1.10;0.50;;;;;;;18.62;55.35;99964.69;5094125;28;20162;-73
2023/03/20 04:55:24;;;;;;;0.40;0.35;;;;;;;18.63;55.04;99961.09;5093984;28;20095;-72
2023/03/20 04:57:50;;;;;;;0.82;0.43;;;;;;;18.62;55.00;99969.97;5093481;28;20556;-72
2023/03/20 05:00:16;;;;;;;0.88;0.40;;;;;;;18.60;55.14;99961.25;5094016;28;20077;-72
2023/03/20 05:02:42;;;;;;;1.33;0.43;;;;;;;18.61;55.18;99968.25;5093944;28;20012;-72
2023/03/20 05:05:08;;;;;;;0.73;0.35;;;;;;;18.58;55.19;99963.97;5093605;28;20407;-72
2023/03/20 05:07:33;;;;;;;0.88;0.43;;;;;;;18.60;55.02;99966.53;5093786;28;20024;-72
2023/03/20 05:09:59;;;;;;;1.35;0.40;;;;;;;18.58;55.23;99963.97;5093715;28;20377;-70
2023/03/20 05:12:26;;;;;;;0.75;0.38;;;;;;;18.57;55.44;99964.03;5093353;28;20559;-72
2023/03/20 05:14:53;;;;;;;1.25;0.38;;;;;;;18.57;55.11;99953.44;5093748;28;20024;-72
2023/03/20 05:17:20;;;;;;;2.08;0.50;;;;;;;18.54;55.38;99953.59;5093356;28;20043;-73
2023/03/20 05:19:46;;;;;;;1.20;0.50;;;;;;;18.54;54.98;99957.06;5093679;28;20403;-72
2023/03/20 05:22:12;;;;;;;0.80;0.25;;;;;;;18.54;55.32;99961.53;5093666;28;20024;-72
2023/03/20 05:24:37;;;;;;;1.02;0.40;;;;;;;18.56;55.25;99954.38;5093008;28;20035;-72
2023/03/20 05:27:02;;;;;;;0.85;0.40;;;;;;;18.55;55.39;99963.22;5093024;28;20028;-72
2023/03/20 05:29:28;;;;;;;0.80;0.47;;;;;;;18.54;55.15;99972.09;5093366;28;20024;-72
2023/03/20 05:31:54;;;;;;;0.75;0.43;;;;;;;18.54;55.33;99978.22;5092572;28;20115;-70
2023/03/20 05:34:20;;;;;;;0.65;0.25;;;;;;;18.54;55.12;99977.38;5093330;28;20024;-72
2023/03/20 05:36:46;;;;;;;1.02;0.40;;;;;;;18.54;54.98;99966.81;5093341;28;20094;-72
2023/03/20 05:39:11;;;;;;;0.98;0.40;;;;;;;18.54;55.02;99967.66;5093462;28;20056;-70
2023/03/20 05:41:37;;;;;;;0.35;0.20;;;;;;;18.54;54.90;99969.44;5092989;28;20410;-72
2023/03/20 05:44:02;;;;;;;1.13;0.30;;;;;;;18.52;55.15;99975.66;5093203;28;20024;-72
2023/03/20 05:46:28;;;;;;;2.53;0.60;;;;;;;18.54;55.10;99980.03;5092896;28;20114;-72
2023/03/20 05:48:53;;;;;;;0.45;0.30;;;;;;;18.53;55.13;99976.50;5092945;28;20027;-73
2023/03/20 05:51:19;;;;;;;0.40;0.30;;;;;;;18.51;54.99;99978.38;5092871;28;20080;-73
2023/03/20 05:53:45;;;;;;;0.65;0.40;;;;;;;18.51;54.92;99978.38;5092894;28;20085;-72
2023/03/20 05:56:10;;;;;;;1.00;0.60;;;;;;;18.48;55.06;99971.44;5092460;28;20070;-72
2023/03/20 05:58:36;;;;;;;0.45;0.28;;;;;;;18.48;54.97;99974.06;5092959;28;20380;-73
2023/03/20 06:01:02;;;;;;;0.70;0.50;;;;;;;18.46;54.94;99975.91;5092716;28;20031;-73
2023/03/20 06:03:27;;;;;;;1.10;0.30;;;;;;;18.46;54.79;99970.59;5092882;28;20046;-73
2023/03/20 06:05:53;;;;;;;0.77;0.32;;;;;;;18.46;54.91;99967.13;5092489;28;20133;-73
2023/03/20 06:08:18;;;;;;;1.10;0.60;;;;;;;18.46;54.98;99975.91;5091336;28;20028;-73
2023/03/20 06:10:43;;;;;;;0.30;0.30;;;;;;;18.46;54.82;99975.06;5092151;28;20495;-73
2023/03/20 06:13:09;;;;;;;0.50;0.35;;;;;;;18.45;54.88;99975.97;5092602;28;20027;-73
2023/03/20 06:15:34;;;;;;;1.35;0.50;;;;;;;18.44;54.83;99972.47;5092439;28;20024;-74
2023/03/20 06:18:00;;;;;;;0.80;0.40;;;;;;;18.44;55.00;99969.00;5091169;28;20031;-69
2023/03/20 06:20:25;;;;;;;1.52;0.50;;;;;;;18.44;55.02;99977.75;5092365;28;20031;-69
2023/03/20 06:22:51;;;;;;;2.55;0.60;;;;;;;18.41;55.21;99980.53;5092580;28;20442;-69
2023/03/20 06:25:17;;;;;;;0.82;0.40;;;;;;;18.43;54.99;99976.03;5090649;28;20481;-68
2023/03/20 06:27:45;;;;;;;1.60;0.40;;;;;;;18.41;55.02;99988.47;5092249;28;20028;-70
2023/03/20 06:30:11;;;;;;;0.85;0.35;;;;;;;18.42;55.14;99991.94;5091045;28;20422;-69
2023/03/20 06:32:37;;;;;;;2.90;0.50;;;;;;;18.42;55.10;99995.47;5088952;28;20491;-69
2023/03/20 06:35:04;;;;;;;0.50;0.32;;;;;;;18.42;55.08;99998.09;5081107;28;20077;-69
2023/03/20 06:37:30;;;;;;;2.00;0.50;;;;;;;18.43;55.11;99991.03;5090572;28;20502;-70
2023/03/20 06:39:55;;;;;;;1.88;0.40;;;;;;;18.42;55.14;100000.75;5090525;28;20103;-68
2023/03/20 06:42:21;;;;;;;1.48;0.40;;;;;;;18.42;54.89;100003.41;5089567;28;20047;-69
2023/03/20 06:44:46;;;;;;;0.70;0.50;;;;;;;18.41;55.25;100001.69;5090347;28;20069;-69
2023/03/20 06:47:12;;;;;;;1.60;0.45;;;;;;;18.40;55.23;100007.03;5092181;28;20221;-66
2023/03/20 06:49:37;;;;;;;1.67;0.70;;;;;;;18.38;54.96;99999.16;5076721;28;20127;-69
2023/03/20 06:52:03;;;;;;;1.77;0.50;;;;;;;18.40;55.08;100002.56;5078909;28;20491;-68
2023/03/20 06:54:28;;;;;;;0.43;0.35;;;;;;;18.39;54.96;100000.88;5091585;28;20016;-69
2023/03/20 06:56:54;;;;;;;2.05;0.40;;;;;;;18.37;54.91;100000.09;5091715;28;20024;-69
2023/03/20 06:59:19;;;;;;;1.90;0.70;;;;;;;18.39;54.94;99995.59;5092004;28;20077;-69
2023/03/20 07:01:45;;;;;;;1.20;0.60;;;;;;;18.38;55.03;100009.72;5091932;28;20638;-70
2023/03/20 07:04:10;;;;;;;2.05;0.60;;;;;;;18.36;55.26;100006.28;5092013;28;20025;-69
2023/03/20 07:06:36;;;;;;;1.20;0.50;;;;;;;18.38;54.93;100015.00;5091805;28;20040;-68
2023/03/20 07:09:03;;;;;;;2.50;0.55;;;;;;;18.37;55.18;100014.13;5091525;28;20509;-69
2023/03/20 07:11:29;;;;;;;1.45;0.35;;;;;;;18.36;55.06;100016.88;5091975;28;20020;-68
2023/03/20 07:13:54;;;;;;;1.98;0.65;;;;;;;18.35;55.16;100012.50;5091814;28;20077;-69
2023/03/20 07:16:20;;;;;;;1.00;0.40;;;;;;;18.37;54.94;100010.66;5091836;28;20553;-69
2023/03/20 07:18:46;;;;;;;0.82;0.32;;;;;;;18.36;55.03;100011.56;5091990;28;20020;-69
2023/03/20 07:21:17;;;;;;;1.15;0.50;;;;;;;18.34;55.04;100009.00;5091901;28;20024;-69
2023/03/20 07:23:43;;;;;;;1.45;0.60;;;;;;;18.36;55.29;100011.56;5091220;28;20515;-68
2023/03/20 07:26:08;;;;;;;0.52;0.30;;;;;;;18.33;55.15;100012.56;5091515;28;20032;-68
2023/03/20 07:28:33;;;;;;;1.77;0.50;;;;;;;18.36;55.18;100011.56;5091924;28;20024;-69
2023/03/20 07:30:59;;;;;;;1.45;0.40;;;;;;;18.35;54.99;100009.88;5090270;28;20030;-69
2023/03/20 07:33:24;;;;;;;0.90;0.30;;;;;;;18.34;55.21;100014.28;5090363;28;20058;-68
2023/03/20 07:35:53;;;;;;;2.45;0.60;;;;;;;18.34;55.20;100016.03;5091645;28;20020;-69
2023/03/20 07:38:20;;;;;;;1.27;0.60;;;;;;;18.36;55.23;100011.56;5091701;28;20031;-68
2023/03/20 07:40:47;;;;;;;0.85;0.40;;;;;;;18.35;55.15;100013.34;5091653;28;20109;-69
2023/03/20 07:43:13;;;;;;;1.27;0.43;;;;;;;18.33;54.97;100017.84;5091923;28;20047;-69
2023/03/20 07:45:38;;;;;;;1.45;0.57;;;;;;;18.38;54.84;100025.56;5091690;28;20422;-69
2023/03/20 07:48:04;;;;;;;1.50;0.50;;;;;;;18.35;54.99;100016.00;5090077;28;20054;-70
2023/03/20 07:50:30;;;;;;;0.95;0.45;;;;;;;18.36;54.94;100020.34;5091129;28;20070;-68
2023/03/20 07:52:55;;;;;;;1.27;0.40;;;;;;;18.36;54.96;100028.28;5091840;27;20444;-69
2023/03/20 07:55:20;;;;;;;0.85;0.38;;;;;;;18.38;54.84;100015.00;5092102;28;20058;-68
2023/03/20 07:57:48;;;;;;;0.88;0.43;;;;;;;18.37;55.15;100024.69;5095014;28;20464;-68
2023/03/20 08:00:14;;;;;;;1.55;0.50;;;;;;;18.37;55.02;100022.06;5095339;28;20028;-69
2023/03/20 08:02:39;;;;;;;1.85;0.47;;;;;;;18.37;55.02;100024.69;5094768;28;20030;-68
2023/03/20 08:05:06;;;;;;;2.35;0.70;;;;;;;18.38;55.11;100026.44;5094753;28;20024;-70
2023/03/20 08:07:32;;;;;;;0.45;0.30;;;;;;;18.40;54.92;100023.72;5094914;28;20028;-69
2023/03/20 08:09:57;;;;;;;1.20;0.50;;;;;;;18.40;54.75;100023.72;5093714;28;20031;-69
2023/03/20 08:12:22;;;;;;;1.58;0.60;;;;;;;18.41;55.07;100024.59;5095072;28;20107;-68
2023/03/20 08:14:48;;;;;;;0.70;0.30;;;;;;;18.42;54.86;100016.59;5094873;28;20024;-69
2023/03/20 08:17:13;;;;;;;0.80;0.38;;;;;;;18.42;55.05;100029.81;5094667;28;20110;-68
2023/03/20 08:19:39;;;;;;;0.95;0.40;;;;;;;18.44;54.88;100025.31;5094488;28;20046;-67
2023/03/20 08:22:04;;;;;;;1.55;0.40;;;;;;;18.44;54.98;100035.88;5094758;28;20387;-68
2023/03/20 08:24:30;;;;;;;0.80;0.30;;;;;;;18.46;54.79;100023.47;5094508;28;20020;-69
2023/03/20 08:26:56;;;;;;;0.80;0.20;;;;;;;18.47;54.84;100029.63;5094577;28;20116;-69
2023/03/20 08:29:21;;;;;;;1.27;0.40;;;;;;;18.48;54.68;100028.69;5094479;28;20081;-68
2023/03/20 08:31:46;;;;;;;0.82;0.30;;;;;;;18.49;54.91;100028.63;5094474;28;20032;-69
2023/03/20 08:34:12;;;;;;;1.17;0.50;;;;;;;18.50;54.54;100025.06;5094143;28;20027;-69
2023/03/20 08:36:38;;;;;;;0.60;0.30;;;;;;;18.51;54.90;100026.78;5094450;28;20476;-69
2023/03/20 08:39:05;;;;;;;1.23;0.45;;;;;;;18.52;54.49;100017.06;5094311;28;20024;-68
2023/03/20 08:41:31;;;;;;;0.75;0.30;;;;;;;18.56;54.70;100025.72;5094596;28;20440;-69
2023/03/20 08:43:57;;;;;;;1.45;0.45;;;;;;;18.55;54.68;100021.38;5094250;28;20016;-70
2023/03/20 08:46:22;;;;;;;1.15;0.60;;;;;;;18.54;54.41;100014.38;5093969;28;20391;-69
2023/03/20 08:48:48;;;;;;;1.83;0.30;;;;;;;18.55;54.43;100011.66;5094014;28;20472;-69
2023/03/20 08:51:13;;;;;;;0.68;0.30;;;;;;;18.56;54.74;100021.31;5093027;28;20040;-70
2023/03/20 08:53:39;;;;;;;0.93;0.45;;;;;;;18.58;54.67;100022.09;5091876;28;20024;-69
2023/03/20 08:56:05;;;;;;;1.42;0.50;;;;;;;18.58;54.50;100021.22;5093801;28;20082;-68
2023/03/20 08:58:31;;;;;;;0.65;0.30;;;;;;;18.59;54.51;100013.25;5093963;28;20028;-68
2023/03/20 09:00:56;;;;;;;0.90;0.28;;;;;;;18.64;54.41;100015.69;5094041;28;20130;-69
2023/03/20 09:03:21;;;;;;;0.50;0.30;;;;;;;18.63;54.40;100013.97;5084341;28;20398;-68
2023/03/20 09:05:50;;;;;;;1.05;0.40;;;;;;;18.65;54.40;100009.50;5088316;28;20027;-70
2023/03/20 09:08:15;;;;;;;0.98;0.35;;;;;;;18.70;54.38;100025.16;5088331;28;20020;-68
2023/03/20 09:10:40;;;;;;;1.75;0.38;;;;;;;18.72;54.33;100012.72;5087291;28;20032;-69
2023/03/20 09:13:06;;;;;;;1.40;0.50;;;;;;;18.72;54.21;100010.94;5091553;28;20389;-69
2023/03/20 09:15:33;;;;;;;1.30;0.52;;;;;;;18.72;54.21;100004.78;5083678;28;20020;-68
2023/03/20 09:17:58;;;;;;;0.65;0.30;;;;;;;18.73;53.91;100015.31;5087915;28;20012;-69
2023/03/20 09:20:24;;;;;;;0.77;0.30;;;;;;;18.74;54.08;100006.44;5088375;28;20552;-69
2023/03/20 09:22:49;;;;;;;1.13;0.35;;;;;;;18.75;54.13;100009.97;5084872;28;20024;-69
2023/03/20 09:25:15;;;;;;;1.02;0.40;;;;;;;18.77;54.20;100005.47;5083296;28;20112;-69
2023/03/20 09:27:40;;;;;;;1.38;0.47;;;;;;;18.77;54.27;100002.81;5084306;28;20032;-68
2023/03/20 09:30:08;;;;;;;1.05;0.47;;;;;;;18.79;54.01;100008.88;5087726;28;20061;-68
2023/03/20 09:32:34;;;;;;;1.58;0.50;;;;;;;18.79;54.10;100004.47;5085480;28;20028;-68
2023/03/20 09:35:00;;;;;;;0.68;0.30;;;;;;;18.77;54.04;100006.31;5081987;28;20450;-69
2023/03/20 09:37:26;;;;;;;0.93;0.47;;;;;;;18.78;54.19;100005.41;5092131;28;20055;-70
2023/03/20 09:39:51;;;;;;;0.85;0.45;;;;;;;18.81;54.21;100006.19;5078105;28;20079;-69
2023/03/20 09:42:35;;;;;;;0.65;0.20;;;;;;;18.82;54.20;100007.91;5085607;28;20112;-70
2023/03/20 09:45:10;;;;;;;1.02;0.30;;;;;;;18.84;54.09;100001.63;5086383;28;20036;-69
2023/03/20 09:47:45;;;;;;;0.93;0.40;;;;;;;18.85;53.79;99998.06;5084587;28;20492;-69
2023/03/20 09:50:25;;;;;;;0.93;0.30;;;;;;;18.87;53.91;99995.34;5083007;28;20088;-70
2023/03/20 09:53:21;;;;;;;1.25;0.40;;;;;;;18.87;53.79;99984.75;5081471;28;20158;-68
2023/03/20 09:55:47;;;;;;;0.80;0.40;;;;;;;18.86;53.73;99988.34;5084527;28;20067;-69
2023/03/20 09:58:26;;;;;;;0.85;0.40;;;;;;;18.87;53.76;99987.41;5086808;28;20031;-68
2023/03/20 10:00:56;;;;;;;1.33;0.60;;;;;;;18.88;54.02;99986.47;5086044;28;20021;-69
2023/03/20 10:03:49;;;;;;;0.63;0.30;;;;;;;18.88;53.75;99981.19;5076625;28;20111;-69
2023/03/20 10:06:16;;;;;;;1.88;0.50;;;;;;;18.89;54.00;99977.63;5077531;28;20511;-68
2023/03/20 10:08:43;;;;;;;1.08;0.30;;;;;;;18.89;53.66;99972.34;5084558;28;20464;-69
2023/03/20 10:11:09;;;;;;;1.08;0.50;;;;;;;18.90;53.82;99974.06;5089793;28;20110;-69
2023/03/20 10:14:06;;;;;;;0.73;0.30;;;;;;;18.90;53.68;99968.78;5085279;28;20496;-69
2023/03/20 10:16:54;;;;;;;0.90;0.40;;;;;;;18.91;53.74;99975.78;5076428;28;20036;-70
2023/03/20 10:19:23;;;;;;;1.48;0.50;;;;;;;18.92;53.70;99973.06;5091250;28;20038;-69
2023/03/20 10:21:56;;;;;;;1.40;0.55;;;;;;;18.92;53.66;99966.91;5089773;28;20024;-69
2023/03/20 10:24:38;;;;;;;1.80;0.63;;;;;;;18.93;53.77;99963.34;5080447;28;20028;-69
2023/03/20 10:27:16;;;;;;;1.40;0.40;;;;;;;18.93;53.73;99965.97;5082754;28;20043;-69
2023/03/20 10:30:13;;;;;;;1.05;0.50;;;;;;;18.94;53.62;99954.50;5079006;28;20492;-69
2023/03/20 10:33:00;;;;;;;1.30;0.35;;;;;;;18.95;53.82;99963.28;5028635;28;20140;-68
2023/03/20 10:35:31;;;;;;;;;;;;;;;18.97;53.71;99959.63;5031107;28;20040;-70
2023/03/20 10:38:08;;;;;;;1.42;0.47;;;;;;;18.96;53.81;99955.28;5030298;28;19924;-69
2023/03/20 10:40:38;;;;;;;0.43;0.30;;;;;;;18.98;53.71;99960.50;5028438;28;20083;-69
2023/03/20 10:43:32;;;;;;;0.47;0.30;;;;;;;18.99;53.63;99949.84;5031655;28;20041;-68
2023/03/20 10:46:03;;;;;;;0.80;0.38;;;;;;;18.99;53.74;99947.19;5018618;28;20041;-70
2023/03/20 10:48:35;;;;;;;0.90;0.35;;;;;;;19.00;53.58;99951.59;5028774;28;20097;-70
2023/03/20 10:51:02;;;;;;;1.13;0.43;;;;;;;19.03;53.83;99946.16;5031059;28;20069;-68
2023/03/20 10:53:37;;;;;;;1.20;0.50;;;;;;;19.04;53.66;99945.22;5031165;28;20462;-69
2023/03/20 10:56:11;;;;;;;1.02;0.40;;;;;;;19.04;53.42;99937.28;5029233;28;20037;-68
2023/03/20 10:58:40;;;;;;;1.35;0.50;;;;;;;19.05;53.59;99932.88;5029565;28;20040;-69
2023/03/20 11:01:06;;;;;;;1.55;0.40;;;;;;;19.06;53.34;99934.59;5030024;28;20033;-69
2023/03/20 11:03:35;;;;;;;1.27;0.50;;;;;;;19.07;53.33;99935.47;5028868;28;20057;-69
2023/03/20 11:06:31;;;;;;;0.57;0.30;;;;;;;19.08;53.43;99929.25;5028553;28;20452;-70
2023/03/20 11:09:10;;;;;;;1.08;0.47;;;;;;;19.09;53.49;99929.19;5042591;28;20063;-69
2023/03/20 11:11:43;;;;;;;1.52;0.40;;;;;;;19.10;53.54;99927.38;5081221;28;20535;-69
2023/03/20 11:14:17;;;;;;;0.52;0.40;;;;;;;19.11;53.38;99923.78;5084241;28;20060;-69
2023/03/20 11:16:48;;;;;;;2.10;0.60;;;;;;;19.12;53.46;99921.09;5078162;28;20115;-68
2023/03/20 11:19:13;;;;;;;1.05;0.40;;;;;;;19.12;53.43;99912.31;5085161;28;20032;-67
2023/03/20 11:21:51;;;;;;;0.60;0.40;;;;;;;19.14;53.31;99910.44;5083349;28;20027;-69
2023/03/20 11:24:46;;;;;;;1.65;0.40;;;;;;;19.15;53.38;99904.22;5082841;28;20039;-69
2023/03/20 11:27:17;;;;;;;0.90;0.43;;;;;;;19.14;53.63;99900.69;5076043;28;20056;-69
2023/03/20 11:29:47;;;;;;;0.75;0.40;;;;;;;19.17;53.33;99897.06;5083216;28;20028;-69
2023/03/20 11:32:28;;;;;;;0.90;0.40;;;;;;;19.16;53.62;99893.56;5085003;28;20020;-69
2023/03/20 11:34:56;;;;;;;1.75;0.47;;;;;;;19.19;53.62;99887.28;5095085;28;20065;-69
2023/03/20 11:37:32;;;;;;;1.02;0.55;;;;;;;19.19;53.55;99884.63;5087310;28;20392;-68
2023/03/20 11:40:12;;;;;;;1.38;0.60;;;;;;;19.22;53.25;99889.75;5091391;28;20107;-69
2023/03/20 11:42:38;;;;;;;0.45;0.30;;;;;;;19.23;53.54;99886.19;5087681;28;20035;-69